Time;durP1;ratioP1;P1;durP2;ratioP2;P2;SDS_P1;SDS_P2;PMS_P1;PMS_P2;Temp;Humidity;BMP_temperature;BMP_pressure;BME280_temperature;BME280_humidity;BME280_pressure;Samples;Min_cycle;Max_cycle;Signal;HPM_P1;HPM_P2
2021/11/20 00:01:13;;;;;;;12.65;2.55;;;;;;;8.97;85.74;99103.75;1785266;77;21040;-72
2021/11/20 00:03:34;;;;;;;10.75;2.85;;;;;;;8.91;85.25;99115.78;1778540;77;22386;-72
2021/11/20 00:06:02;;;;;;;12.13;2.90;;;;;;;8.90;85.27;99095.38;1813665;77;21138;-72
2021/11/20 00:08:29;;;;;;;14.05;2.55;;;;;;;8.87;85.44;99093.41;1815965;77;21065;-72
2021/11/20 00:11:01;;;;;;;10.38;2.80;;;;;;;8.83;85.59;99144.79;1813963;77;21520;-73
2021/11/20 00:13:29;;;;;;;13.38;2.52;;;;;;;8.80;85.81;99115.47;1818347;78;21085;-71
2021/11/20 00:16:00;;;;;;;15.05;3.30;;;;;;;8.78;85.61;99127.72;1719719;81;21069;-71
2021/11/20 00:18:30;;;;;;;7.83;2.05;;;;;;;8.76;85.35;99139.95;1732535;79;21142;-72
2021/11/20 00:21:01;;;;;;;12.35;2.67;;;;;;;8.72;85.50;99155.72;1762045;81;22692;-71
2021/11/20 00:23:36;;;;;;;11.35;2.62;;;;;;;8.70;85.60;99121.11;1733012;79;21514;-72
2021/11/20 00:26:07;;;;;;;11.63;3.00;;;;;;;8.65;85.70;99115.28;1759542;79;21078;-73
2021/11/20 00:31:31;;;;;;;10.75;3.33;;;;;;;8.52;85.49;99124.63;1760763;79;21011;-72
2021/11/20 00:34:03;;;;;;;10.23;3.08;;;;;;;8.47;85.45;99165.63;1763014;80;21261;-72
2021/11/20 00:36:30;;;;;;;13.18;3.15;;;;;;;8.42;85.57;99165.00;1756485;79;21038;-72
2021/11/20 00:38:58;;;;;;;12.65;2.85;;;;;;;8.37;85.11;99173.44;1761793;79;20988;-72
2021/11/20 00:41:31;;;;;;;18.30;3.83;;;;;;;8.35;85.20;99170.92;1727785;81;21149;-72
2021/11/20 00:43:58;;;;;;;12.13;2.83;;;;;;;8.32;85.01;99178.87;1777997;79;21432;-72
2021/11/20 00:46:29;;;;;;;12.98;3.17;;;;;;;8.28;84.99;99179.45;1753096;81;26538;-72
2021/11/20 00:48:56;;;;;;;20.82;4.15;;;;;;;8.25;85.13;99184.80;1756435;79;20915;-71
2021/11/20 00:51:26;;;;;;;11.75;3.35;;;;;;;8.21;84.78;99193.67;1752960;79;21567;-71
2021/11/20 00:53:55;;;;;;;12.05;3.25;;;;;;;8.21;84.99;99179.83;1752558;80;20990;-72
2021/11/20 00:56:25;;;;;;;15.50;4.12;;;;;;;8.16;85.03;99163.59;1752456;80;21108;-71
2021/11/20 00:58:53;;;;;;;15.60;2.52;;;;;;;8.13;85.19;99181.94;1751050;80;21083;-72
2021/11/20 01:01:28;;;;;;;13.05;3.20;;;;;;;8.10;84.84;99200.28;1758919;80;21025;-71
2021/11/20 01:03:55;;;;;;;16.73;3.30;;;;;;;8.07;84.97;99210.36;1751271;81;20987;-71
2021/11/20 01:06:22;;;;;;;15.00;4.07;;;;;;;8.04;85.21;99198.80;1755465;80;21026;-72
2021/11/20 01:08:52;;;;;;;10.25;2.98;;;;;;;8.00;85.27;99210.23;1755735;81;21078;-72
2021/11/20 01:11:30;;;;;;;12.93;3.72;;;;;;;7.98;85.10;99199.05;1749973;79;21109;-72
2021/11/20 01:14:00;;;;;;;18.00;4.28;;;;;;;7.93;85.00;99184.98;1755370;79;20968;-72
2021/11/20 01:16:29;;;;;;;20.20;4.25;;;;;;;7.94;85.29;99218.31;1753263;81;21003;-73
2021/11/20 01:18:57;;;;;;;15.28;4.00;;;;;;;7.92;85.26;99221.43;1751828;80;20997;-73
2021/11/20 01:21:32;;;;;;;22.20;4.42;;;;;;;7.90;85.08;99233.22;1754218;80;21108;-72
2021/11/20 01:23:55;;;;;;;18.07;4.12;;;;;;;7.89;85.12;99221.57;1751099;80;21491;-72
2021/11/20 01:26:25;;;;;;;16.65;4.22;;;;;;;7.86;85.31;99225.14;1728804;81;21074;-72
2021/11/20 01:28:56;;;;;;;14.68;4.05;;;;;;;7.82;85.41;99225.75;1750715;80;20988;-72
2021/11/20 01:31:34;;;;;;;17.07;4.62;;;;;;;7.80;85.44;99237.95;1732339;81;21086;-72
2021/11/20 01:33:59;;;;;;;27.87;4.25;;;;;;;7.78;85.42;99235.87;1747159;81;21631;-72
2021/11/20 01:36:30;;;;;;;20.20;4.10;;;;;;;7.78;85.49;99261.86;1701679;81;21025;-72
2021/11/20 01:39:04;;;;;;;21.97;4.60;;;;;;;7.77;85.59;99240.69;1733962;79;20919;-70
2021/11/20 01:41:32;;;;;;;18.45;4.70;;;;;;;7.76;85.67;99270.20;1741093;80;21013;-72
2021/11/20 01:44:13;;;;;;;21.23;5.42;;;;;;;7.74;85.75;99253.82;1724320;81;21106;-72
2021/11/20 01:46:45;;;;;;;20.72;5.12;;;;;;;7.73;85.76;99270.34;1734415;80;21049;-71
2021/11/20 01:49:26;;;;;;;15.55;3.90;;;;;;;7.68;85.79;99256.69;1730704;80;21132;-72
2021/11/20 01:52:16;;;;;;;25.52;4.92;;;;;;;7.64;86.02;99255.11;1729874;81;20942;-72
2021/11/20 01:55:06;;;;;;;19.82;5.30;;;;;;;7.60;85.96;99253.57;1741376;81;21069;-72
2021/11/20 01:58:03;;;;;;;17.55;4.40;;;;;;;7.59;86.05;99262.28;1731236;81;21513;-73
2021/11/20 02:00:44;;;;;;;14.63;4.28;;;;;;;7.58;86.13;99242.39;1731788;81;21148;-72
2021/11/20 02:03:33;;;;;;;20.05;4.22;;;;;;;7.57;86.20;99261.50;1737978;81;20994;-73
2021/11/20 02:10:08;;;;;;;16.73;4.67;;;;;;;7.58;86.35;99264.47;1726863;80;21076;-72
2021/11/20 02:12:50;;;;;;;16.95;4.20;;;;;;;7.57;86.33;99274.48;1700723;82;21045;-72
2021/11/20 02:15:29;;;;;;;22.00;5.17;;;;;;;7.54;86.35;99272.86;1726909;81;20946;-72
2021/11/20 02:17:59;;;;;;;16.37;4.25;;;;;;;7.54;86.45;99303.20;1755653;80;21255;-72
2021/11/20 02:20:37;;;;;;;25.43;5.80;;;;;;;7.56;86.61;99281.88;1726227;81;21018;-72
2021/11/20 02:23:05;;;;;;;17.70;3.50;;;;;;;7.58;86.61;99281.36;1722659;82;21070;-72
2021/11/20 02:25:31;;;;;;;;;;;;;;;7.59;86.56;99280.47;1761358;80;20974;-72
2021/11/20 02:28:01;;;;;;;19.40;4.37;;;;;;;7.58;86.63;99291.75;1754518;80;20157;-72
2021/11/20 02:30:36;;;;;;;21.68;4.97;;;;;;;7.59;86.68;99311.65;1761125;80;21331;-72
2021/11/20 02:33:13;;;;;;;24.47;4.87;;;;;;;7.58;86.70;99312.53;1769101;80;21141;-72
2021/11/20 02:35:51;;;;;;;;;;;;;;;7.54;86.80;99298.84;1764846;80;21642;-72
2021/11/20 02:38:29;;;;;;;25.90;5.35;;;;;;;7.53;86.84;99320.97;1758375;80;20108;-72
2021/11/20 02:41:01;;;;;;;22.37;4.78;;;;;;;7.51;86.90;99305.92;1762766;80;21223;-71
2021/11/20 02:43:31;;;;;;;22.58;5.08;;;;;;;7.48;87.07;99324.20;1762335;80;21238;-72
2021/11/20 02:45:58;;;;;;;20.15;4.67;;;;;;;7.47;87.05;99314.73;1734769;80;21117;-72
2021/11/20 02:48:26;;;;;;;25.48;5.28;;;;;;;7.48;87.10;99326.80;1740908;80;21609;-72
2021/11/20 02:51:22;;;;;;;23.35;5.10;;;;;;;7.45;87.26;99320.02;1766997;80;21015;-72
2021/11/20 02:54:00;;;;;;;17.62;4.45;;;;;;;7.45;87.21;99311.34;1762561;80;22319;-72
2021/11/20 02:56:32;;;;;;;24.20;5.30;;;;;;;7.43;87.23;99326.17;1763018;80;21086;-72
2021/11/20 02:59:03;;;;;;;17.40;3.42;;;;;;;7.42;87.28;99327.90;1696395;82;20986;-72
2021/11/20 03:01:35;;;;;;;24.90;4.60;;;;;;;7.45;87.18;99319.14;1755802;79;22081;-72
2021/11/20 03:04:06;;;;;;;17.82;4.75;;;;;;;7.48;87.16;99335.89;1772456;79;21318;-72
2021/11/20 03:06:33;;;;;;;23.12;5.67;;;;;;;7.48;87.16;99329.41;1754741;80;21010;-72
2021/11/20 03:09:01;;;;;;;18.00;4.75;;;;;;;7.47;87.12;99332.92;1704762;81;22629;-72
2021/11/20 03:11:28;;;;;;;;;;;;;;;7.46;87.20;99341.62;1719981;83;21115;-72
2021/11/20 03:13:57;;;;;;;20.70;4.25;;;;;;;7.45;87.30;99350.31;1685173;83;20254;-72
2021/11/20 03:16:24;;;;;;;21.07;4.42;;;;;;;7.46;87.39;99359.81;1756732;80;21056;-72
2021/11/20 03:18:51;;;;;;;24.72;6.10;;;;;;;7.47;87.40;99362.79;1757878;80;21034;-72
2021/11/20 03:21:19;;;;;;;22.20;4.50;;;;;;;7.48;87.48;99365.77;1758406;80;21054;-72
2021/11/20 03:23:51;;;;;;;26.95;6.28;;;;;;;7.46;87.47;99368.91;1761004;80;20985;-72
2021/11/20 03:26:18;;;;;;;22.27;3.80;;;;;;;7.44;87.66;99372.02;1753336;80;21229;-72
2021/11/20 03:28:45;;;;;;;26.48;5.37;;;;;;;7.39;87.54;99366.56;1760490;80;20962;-72
2021/11/20 03:31:12;;;;;;;24.98;4.80;;;;;;;7.39;87.69;99360.06;1752427;80;20974;-72
2021/11/20 03:33:39;;;;;;;20.80;4.75;;;;;;;7.40;87.80;99363.50;1754144;80;21734;-72
2021/11/20 03:36:07;;;;;;;19.37;4.22;;;;;;;7.37;87.73;99364.47;1758016;80;21005;-72
2021/11/20 03:38:34;;;;;;;;;;;;;;;7.36;87.75;99351.53;1748314;80;21052;-72
2021/11/20 03:41:01;;;;;;;22.50;5.42;;;;;;;7.34;87.86;99374.98;1758077;80;20183;-72
2021/11/20 03:43:28;;;;;;;17.25;4.08;;;;;;;7.32;87.80;99364.26;1710892;80;20999;-73
2021/11/20 03:45:55;;;;;;;23.50;5.30;;;;;;;7.30;87.85;99386.38;1756406;80;21108;-72
2021/11/20 03:48:22;;;;;;;19.37;4.63;;;;;;;7.31;87.81;99380.30;1701324;80;21596;-72
2021/11/20 03:50:49;;;;;;;29.07;5.08;;;;;;;7.30;87.88;99375.16;1736183;80;21042;-72
2021/11/20 03:53:16;;;;;;;23.12;4.97;;;;;;;7.29;87.89;99379.50;1734986;80;21049;-73
2021/11/20 03:55:47;;;;;;;26.27;5.80;;;;;;;7.27;87.88;99385.20;1732718;80;21143;-72
2021/11/20 03:58:17;;;;;;;21.80;4.78;;;;;;;7.24;88.04;99386.63;1753700;80;21083;-72
2021/11/20 04:00:59;;;;;;;21.97;5.12;;;;;;;7.26;88.18;99395.21;1736643;80;21107;-72
2021/11/20 04:03:27;;;;;;;21.05;4.50;;;;;;;7.27;88.20;99396.89;1767204;80;20950;-72
2021/11/20 04:05:57;;;;;;;22.87;4.97;;;;;;;7.27;88.25;99388.26;1750682;80;21052;-72
2021/11/20 04:08:28;;;;;;;19.87;4.70;;;;;;;7.25;88.16;99380.52;1734727;80;20930;-72
2021/11/20 04:10:57;;;;;;;23.67;5.10;;;;;;;7.23;88.32;99392.73;1744755;80;21101;-72
2021/11/20 04:13:25;;;;;;;25.65;5.00;;;;;;;7.20;88.25;99386.37;1733472;80;21373;-72
2021/11/20 04:15:52;;;;;;;20.23;4.87;;;;;;;7.17;88.26;99392.52;1767294;80;21008;-72
2021/11/20 04:18:19;;;;;;;25.48;4.60;;;;;;;7.15;88.25;99403.87;1698689;82;20954;-71
2021/11/20 04:20:47;;;;;;;21.07;4.45;;;;;;;7.15;88.37;99403.87;1755336;80;21151;-71
2021/11/20 04:23:15;;;;;;;21.80;4.80;;;;;;;7.13;88.95;99431.17;1759061;80;21177;-72
2021/11/20 04:25:43;;;;;;;26.45;4.92;;;;;;;7.14;88.63;99429.42;1746831;80;20922;-72
2021/11/20 04:28:11;;;;;;;26.05;5.35;;;;;;;7.16;88.78;99418.53;1727703;80;21024;-72
2021/11/20 04:30:41;;;;;;;28.12;4.97;;;;;;;7.16;88.86;99417.23;1703371;82;21013;-71
2021/11/20 04:33:08;;;;;;;26.12;4.87;;;;;;;7.17;88.74;99416.34;1736634;80;20977;-72
2021/11/20 04:35:35;;;;;;;21.37;4.80;;;;;;;7.18;88.95;99428.41;1758246;80;21162;-72
2021/11/20 04:38:03;;;;;;;19.55;4.30;;;;;;;7.21;88.77;99428.30;1754848;80;21519;-71
2021/11/20 04:40:31;;;;;;;20.45;4.83;;;;;;;7.21;88.69;99434.78;1760889;80;21087;-71
2021/11/20 04:42:59;;;;;;;21.30;4.90;;;;;;;7.19;88.66;99437.88;1711931;82;20965;-72
2021/11/20 04:45:31;;;;;;;20.60;4.60;;;;;;;7.17;88.71;99433.23;1758777;80;21567;-72
2021/11/20 04:47:57;;;;;;;20.50;5.03;;;;;;;7.16;88.82;99438.84;1758128;80;21136;-72
2021/11/20 04:50:25;;;;;;;16.80;4.23;;;;;;;7.17;88.88;99440.55;1759460;80;21237;-72
2021/11/20 04:52:52;;;;;;;;;;;;;;;7.18;88.98;99444.00;1746287;80;21283;-72
2021/11/20 04:55:22;;;;;;;23.65;4.62;;;;;;;7.21;89.09;99453.42;1735782;80;20822;-72
2021/11/20 04:57:50;;;;;;;15.70;4.20;;;;;;;7.22;89.12;99453.34;1751357;80;21037;-72
2021/11/20 05:00:25;;;;;;;21.85;5.22;;;;;;;7.25;89.04;99468.81;1751722;80;21127;-71
2021/11/20 05:02:53;;;;;;;17.67;3.65;;;;;;;7.25;89.04;99461.02;1753314;79;20993;-73
2021/11/20 05:05:20;;;;;;;16.67;3.45;;;;;;;7.25;89.03;99457.12;1748119;80;21032;-72
2021/11/20 05:07:47;;;;;;;27.42;5.05;;;;;;;7.23;89.19;99457.66;1762987;80;21161;-72
2021/11/20 05:10:16;;;;;;;21.90;4.87;;;;;;;7.23;89.07;99457.66;1749727;80;20965;-72
2021/11/20 05:12:44;;;;;;;17.92;4.87;;;;;;;7.24;89.05;99451.55;1758112;79;21067;-72
2021/11/20 05:15:14;;;;;;;21.37;5.17;;;;;;;7.25;89.02;99455.83;1762320;79;21024;-72
2021/11/20 05:17:41;;;;;;;20.52;4.17;;;;;;;7.25;89.04;99448.03;1763617;79;20989;-73
2021/11/20 05:20:09;;;;;;;22.13;5.87;;;;;;;7.25;89.13;99449.33;1745246;79;21034;-72
2021/11/20 05:22:37;;;;;;;18.12;4.40;;;;;;;7.24;89.07;99455.44;1757958;80;20948;-72
2021/11/20 05:25:06;;;;;;;21.23;5.37;;;;;;;7.22;89.04;99453.34;1748952;80;21187;-72
2021/11/20 05:27:33;;;;;;;25.92;5.17;;;;;;;7.21;89.07;99443.88;1768472;80;20993;-72
2021/11/20 05:30:08;;;;;;;;;;;;;;;7.21;89.05;99446.93;1767154;79;21545;-72
2021/11/20 05:32:34;;;;;;;22.42;5.78;;;;;;;7.20;89.12;99457.77;1768447;80;20564;-71
2021/11/20 05:35:02;;;;;;;17.62;5.15;;;;;;;7.19;89.11;99444.37;1746591;80;20927;-72
2021/11/20 05:37:30;;;;;;;16.45;3.87;;;;;;;7.19;89.18;99456.06;1740447;80;22332;-72
2021/11/20 05:39:58;;;;;;;19.87;5.20;;;;;;;7.21;89.10;99441.28;1755529;80;21638;-72
2021/11/20 05:42:30;;;;;;;16.65;4.28;;;;;;;7.22;89.12;99458.54;1773806;79;21093;-72
2021/11/20 05:44:58;;;;;;;10.55;3.52;;;;;;;7.22;89.13;99457.70;1761038;80;21032;-72
2021/11/20 05:47:25;;;;;;;22.75;5.30;;;;;;;7.22;89.10;99465.48;1739048;80;21059;-72
2021/11/20 05:49:51;;;;;;;22.95;5.03;;;;;;;7.21;89.04;99462.05;1732427;80;21117;-72
2021/11/20 05:52:18;;;;;;;22.52;4.60;;;;;;;7.20;89.04;99464.69;1743836;80;21080;-72
2021/11/20 05:54:47;;;;;;;16.40;4.15;;;;;;;7.18;89.06;99473.86;1761101;80;21043;-72
2021/11/20 05:57:13;;;;;;;23.55;5.05;;;;;;;7.18;89.09;99475.16;1760733;80;20991;-72
2021/11/20 05:59:41;;;;;;;22.50;5.30;;;;;;;7.14;89.08;99455.38;1763481;80;21568;-72
2021/11/20 06:02:12;;;;;;;14.00;4.60;;;;;;;7.14;89.07;99459.27;1741239;80;21125;-72
2021/11/20 06:04:37;;;;;;;17.45;5.22;;;;;;;7.14;89.10;99473.56;1715956;81;21036;-72
2021/11/20 06:07:04;;;;;;;;;;;;;;;7.12;89.08;99478.83;1733599;80;20938;-72
2021/11/20 06:09:31;;;;;;;18.02;4.53;;;;;;;7.10;89.09;99484.52;1762089;79;20593;-72
2021/11/20 06:11:58;;;;;;;17.90;5.23;;;;;;;7.09;89.10;99493.67;1730995;80;20927;-72
2021/11/20 06:14:25;;;;;;;18.57;5.10;;;;;;;7.08;89.07;99497.16;1759208;80;21108;-72
2021/11/20 06:16:52;;;;;;;17.27;4.62;;;;;;;7.08;89.12;99503.19;1764714;80;20978;-72
2021/11/20 06:19:19;;;;;;;18.77;5.00;;;;;;;7.10;89.11;99499.25;1686995;82;21516;-72
2021/11/20 06:21:46;;;;;;;27.80;5.60;;;;;;;7.10;89.12;99500.55;1738368;80;21008;-72
2021/11/20 06:24:13;;;;;;;17.40;4.62;;;;;;;7.12;89.08;99505.25;1770159;80;20983;-72
2021/11/20 06:26:40;;;;;;;20.43;5.60;;;;;;;7.13;89.08;99518.61;1746690;80;21162;-72
2021/11/20 06:29:07;;;;;;;16.70;5.28;;;;;;;7.14;89.05;99513.80;1723474;82;21061;-72
2021/11/20 06:31:34;;;;;;;19.52;4.67;;;;;;;7.15;88.94;99511.63;1744084;80;20925;-72
2021/11/20 06:34:01;;;;;;;;;;;;;;;7.15;88.93;99528.04;1755644;80;20991;-72
2021/11/20 06:36:30;;;;;;;18.27;5.10;;;;;;;7.14;88.90;99526.78;1742828;80;20682;-72
2021/11/20 06:38:57;;;;;;;20.40;4.30;;;;;;;7.13;89.03;99526.40;1715483;80;21090;-72
2021/11/20 06:41:25;;;;;;;18.70;5.47;;;;;;;7.14;88.86;99530.67;1740849;80;21062;-73
2021/11/20 06:43:52;;;;;;;14.98;4.28;;;;;;;7.17;88.99;99533.19;1725369;81;21041;-72
2021/11/20 06:46:19;;;;;;;19.07;4.40;;;;;;;7.16;88.95;99537.97;1689125;82;21070;-72
2021/11/20 06:48:47;;;;;;;14.95;3.92;;;;;;;7.15;88.97;99528.50;1771454;80;20966;-72
2021/11/20 06:51:16;;;;;;;16.97;4.33;;;;;;;7.15;88.99;99542.78;1735806;80;21034;-71
2021/11/20 06:53:45;;;;;;;14.40;4.08;;;;;;;7.14;88.91;99530.67;1764904;79;21015;-71
2021/11/20 06:56:25;;;;;;;19.27;4.50;;;;;;;7.15;88.93;99525.90;1744962;80;21156;-71
2021/11/20 07:01:21;;;;;;;16.30;3.85;;;;;;;7.21;89.02;99505.36;1723348;81;21854;-71
2021/11/20 07:03:56;;;;;;;26.07;5.08;;;;;;;7.26;89.06;99514.67;1763713;80;21595;-71
2021/11/20 07:06:28;;;;;;;15.18;4.03;;;;;;;7.30;89.00;99519.29;1727137;80;21068;-72
2021/11/20 07:08:56;;;;;;;12.43;3.77;;;;;;;7.34;89.00;99500.95;1748173;80;20963;-71
2021/11/20 07:11:25;;;;;;;18.48;4.22;;;;;;;7.39;88.99;99497.73;1738613;80;21603;-72
2021/11/20 07:13:54;;;;;;;20.35;4.33;;;;;;;7.46;89.05;99510.48;1738588;80;20992;-71
2021/11/20 07:16:34;;;;;;;19.10;4.15;;;;;;;7.49;88.92;99498.67;1768760;79;21139;-72
2021/11/20 07:19:01;;;;;;;18.07;4.70;;;;;;;7.50;88.90;99495.16;1719105;82;21603;-72
2021/11/20 07:21:29;;;;;;;14.43;5.00;;;;;;;7.51;88.86;99508.56;1741580;80;21772;-72
2021/11/20 07:23:59;;;;;;;12.55;4.15;;;;;;;7.54;88.98;99504.09;1752734;80;21051;-72
2021/11/20 07:26:28;;;;;;;18.32;4.15;;;;;;;7.56;88.94;99502.71;1761811;79;21183;-72
2021/11/20 07:28:56;;;;;;;15.25;3.33;;;;;;;7.56;88.94;99509.20;1763262;79;21850;-71
2021/11/20 07:31:23;;;;;;;;;;;;;;;7.56;88.95;99502.71;1763941;80;21058;-72
2021/11/20 07:33:50;;;;;;;14.13;3.80;;;;;;;7.56;89.00;99498.81;1770801;79;20167;-72
2021/11/20 07:36:20;;;;;;;15.83;5.08;;;;;;;7.60;89.08;99508.20;1770215;80;20953;-71
2021/11/20 07:38:55;;;;;;;17.12;4.62;;;;;;;7.64;89.08;99520.16;1688047;82;21095;-71
2021/11/20 07:41:28;;;;;;;16.27;4.28;;;;;;;7.65;89.02;99528.36;1743827;80;21184;-72
2021/11/20 07:43:56;;;;;;;18.75;4.12;;;;;;;7.67;89.06;99522.63;1761668;80;21014;-72
2021/11/20 07:46:24;;;;;;;17.27;4.45;;;;;;;7.71;89.10;99519.03;1764039;80;21005;-73
2021/11/20 07:48:56;;;;;;;17.25;4.72;;;;;;;7.77;89.10;99521.37;1763257;80;21175;-73
2021/11/20 07:51:24;;;;;;;19.32;4.78;;;;;;;7.80;89.21;99521.26;1741883;80;21020;-73
2021/11/20 07:53:51;;;;;;;14.65;4.50;;;;;;;7.88;89.12;99539.62;1736978;79;22327;-73
2021/11/20 07:56:20;;;;;;;18.17;4.85;;;;;;;7.92;89.13;99547.68;1767887;79;21618;-73
2021/11/20 07:58:48;;;;;;;17.73;5.35;;;;;;;7.95;89.07;99546.26;1761789;79;21022;-73
2021/11/20 08:01:15;;;;;;;16.62;5.15;;;;;;;7.98;89.19;99531.84;1760357;79;20992;-73
2021/11/20 08:03:42;;;;;;;15.55;4.03;;;;;;;8.01;89.13;99539.52;1742461;80;21532;-73
2021/11/20 08:06:09;;;;;;;15.30;4.62;;;;;;;8.06;89.04;99534.98;1769516;80;21005;-73
2021/11/20 08:08:37;;;;;;;15.10;4.17;;;;;;;8.09;88.98;99542.66;1728392;82;21697;-73
2021/11/20 08:11:05;;;;;;;19.55;4.22;;;;;;;8.09;88.91;99530.95;1747364;80;21468;-73
2021/11/20 08:13:35;;;;;;;19.80;5.97;;;;;;;8.12;88.61;99537.33;1762457;80;20995;-73
2021/11/20 08:16:03;;;;;;;15.38;4.58;;;;;;;8.12;88.93;99528.23;1726356;82;21033;-73
2021/11/20 08:18:30;;;;;;;15.50;4.40;;;;;;;8.24;89.12;99519.11;1731859;80;21696;-73
2021/11/20 08:20:59;;;;;;;13.85;3.55;;;;;;;8.27;88.76;99512.02;1736144;80;21030;-73
2021/11/20 08:23:25;;;;;;;18.92;4.70;;;;;;;8.27;88.80;99521.12;1733745;80;21075;-73
2021/11/20 08:25:52;;;;;;;22.17;5.25;;;;;;;8.27;88.83;99505.52;1744974;79;21075;-73
2021/11/20 08:28:21;;;;;;;11.05;3.27;;;;;;;8.27;88.82;99501.61;1718348;82;20966;-73
2021/11/20 08:30:49;;;;;;;17.30;4.58;;;;;;;8.30;88.80;99507.98;1760508;80;21049;-73
2021/11/20 08:33:17;;;;;;;19.57;4.47;;;;;;;8.37;89.08;99494.72;1769742;79;21046;-72
2021/11/20 08:35:55;;;;;;;;;;;;;;;;;;;;;
2021/11/20 08:38:15;;;;;;;15.25;5.10;;;;;;;8.55;88.88;99504.39;1741812;80;21093;-73
2021/11/20 08:40:45;;;;;;;18.95;4.95;;;;;;;8.62;88.89;99492.80;1762186;80;21598;-74
2021/11/20 08:43:13;;;;;;;14.80;4.33;;;;;;;8.69;88.92;99483.83;1725473;82;21081;-73
2021/11/20 08:45:45;;;;;;;14.75;4.40;;;;;;;8.80;88.86;99486.42;1751277;80;21618;-74
2021/11/20 08:48:16;;;;;;;16.60;4.75;;;;;;;8.86;88.77;99483.55;1762485;80;21785;-74
2021/11/20 08:50:51;;;;;;;20.40;4.70;;;;;;;8.91;88.78;99478.53;1739634;80;21048;-74
2021/11/20 08:53:22;;;;;;;20.75;4.60;;;;;;;8.94;88.55;99489.27;1762624;79;21041;-73
2021/11/20 08:55:49;;;;;;;13.62;3.70;;;;;;;8.91;88.21;99488.11;1740917;80;21103;-73
2021/11/20 08:58:17;;;;;;;15.25;4.75;;;;;;;8.86;88.26;99487.45;1739924;80;21068;-73
2021/11/20 09:00:47;;;;;;;;;;;;;;;8.81;87.89;99485.50;1766492;79;21019;-74
2021/11/20 09:03:19;;;;;;;17.55;5.17;;;;;;;8.69;87.75;99489.03;1763274;80;20119;-73
2021/11/20 09:06:00;;;;;;;11.83;4.03;;;;;;;8.59;87.96;99495.53;1756073;80;21801;-74
2021/11/20 09:08:44;;;;;;;11.30;3.25;;;;;;;8.62;88.10;99487.59;1762548;80;21091;-73
2021/11/20 09:11:22;;;;;;;21.35;4.67;;;;;;;8.69;87.96;99477.31;1765584;80;21160;-74
2021/11/20 09:14:00;;;;;;;16.27;4.53;;;;;;;8.68;87.95;99487.35;1756979;80;21520;-74
2021/11/20 09:16:28;;;;;;;15.70;4.28;;;;;;;8.67;88.07;99481.73;1728465;80;21050;-74
2021/11/20 09:18:57;;;;;;;13.48;3.72;;;;;;;8.68;87.89;99488.66;1733607;82;21129;-74
2021/11/20 09:21:25;;;;;;;16.02;4.33;;;;;;;8.60;86.81;99494.64;1730059;82;21081;-70
2021/11/20 09:23:54;;;;;;;13.58;3.95;;;;;;;8.59;87.02;99502.03;1742360;80;20955;-72
2021/11/20 09:26:21;;;;;;;14.73;3.87;;;;;;;8.57;87.00;99506.91;1723635;82;21099;-72
2021/11/20 09:28:48;;;;;;;17.48;3.92;;;;;;;8.54;86.51;99500.08;1738856;81;21535;-73
2021/11/20 09:31:17;;;;;;;18.80;5.53;;;;;;;8.52;87.33;99504.53;1739301;81;21170;-73
2021/11/20 09:33:44;;;;;;;13.62;3.20;;;;;;;8.55;87.46;99508.30;1710816;82;21942;-72
2021/11/20 09:36:12;;;;;;;15.32;3.95;;;;;;;8.61;87.34;99505.42;1770845;80;21560;-72
2021/11/20 09:38:40;;;;;;;15.70;4.30;;;;;;;8.63;87.06;99515.33;1768728;80;20997;-70
2021/11/20 09:41:17;;;;;;;11.15;3.40;;;;;;;8.63;87.10;99496.27;1760602;80;20969;-71
2021/11/20 09:43:49;;;;;;;14.58;4.10;;;;;;;8.64;86.58;99505.30;1759105;80;21059;-71
2021/11/20 09:46:24;;;;;;;14.70;3.75;;;;;;;8.71;87.29;99489.81;1723621;80;21128;-72
2021/11/20 09:48:56;;;;;;;14.70;3.95;;;;;;;8.85;87.29;99490.52;1730515;80;21085;-72
2021/11/20 09:51:39;;;;;;;15.65;4.10;;;;;;;8.90;87.07;99483.79;1741878;80;21314;-71
2021/11/20 09:54:26;;;;;;;12.58;3.58;;;;;;;8.99;87.18;99489.91;1762139;80;21655;-74
2021/11/20 09:57:04;;;;;;;10.13;3.15;;;;;;;9.08;87.08;99495.17;1763039;80;20949;-73
2021/11/20 09:59:45;;;;;;;15.75;4.30;;;;;;;9.09;86.53;99495.08;1726220;82;21062;-73
2021/11/20 10:02:29;;;;;;;13.32;3.92;;;;;;;9.14;86.31;99480.09;1763692;80;21575;-73
2021/11/20 10:05:13;;;;;;;13.48;3.62;;;;;;;9.19;86.11;99469.02;1742887;81;20915;-73
2021/11/20 10:07:45;;;;;;;11.33;3.83;;;;;;;9.17;86.20;99464.33;1742313;81;21034;-73
2021/11/20 10:10:32;;;;;;;16.37;4.08;;;;;;;9.14;86.19;99467.53;1762881;80;20997;-73
2021/11/20 10:13:22;;;;;;;16.20;3.75;;;;;;;9.17;85.94;99469.53;1756620;80;21080;-73
2021/11/20 10:16:07;;;;;;;12.58;3.90;;;;;;;9.25;86.45;99456.17;1772628;79;21056;-73
2021/11/20 10:18:54;;;;;;;16.45;4.35;;;;;;;9.32;85.99;99461.92;1717238;82;22047;-72
2021/11/20 10:21:45;;;;;;;18.90;4.12;;;;;;;9.41;86.30;99453.70;1727677;80;20969;-73
2021/11/20 10:24:52;;;;;;;15.98;3.83;;;;;;;9.44;86.06;99437.92;1724345;82;20949;-72
2021/11/20 10:27:47;;;;;;;16.17;4.58;;;;;;;9.57;86.09;99436.41;1742532;80;21212;-73
2021/11/20 10:30:50;;;;;;;18.20;4.60;;;;;;;9.71;86.13;99437.52;1765839;80;21045;-73
2021/11/20 10:33:37;;;;;;;13.43;4.35;;;;;;;9.81;85.88;99425.73;1723246;82;20986;-72
2021/11/20 10:36:18;;;;;;;15.35;3.65;;;;;;;9.87;85.46;99412.39;1758118;80;20956;-73
2021/11/20 10:39:05;;;;;;;14.85;4.33;;;;;;;9.85;85.55;99412.91;1767275;79;20997;-73
2021/11/20 10:41:40;;;;;;;14.70;3.55;;;;;;;9.78;85.36;99407.63;1757580;79;21098;-72
2021/11/20 10:44:24;;;;;;;14.30;3.70;;;;;;;9.73;85.22;99412.22;1758734;79;21179;-73
2021/11/20 10:46:56;;;;;;;14.80;4.08;;;;;;;9.71;85.45;99416.66;1728740;79;20943;-73
2021/11/20 10:49:41;;;;;;;12.58;4.00;;;;;;;9.75;85.69;99397.36;1760814;79;21012;-72
2021/11/20 10:52:33;;;;;;;17.20;4.03;;;;;;;9.71;85.26;99406.23;1746843;80;21012;-73
2021/11/20 10:55:31;;;;;;;10.90;3.08;;;;;;;9.73;85.36;99403.09;1761781;80;21152;-74
2021/11/20 10:58:23;;;;;;;11.28;2.98;;;;;;;9.71;85.48;99396.64;1761776;80;21016;-73
2021/11/20 11:01:30;;;;;;;10.25;2.85;;;;;;;9.69;85.56;99392.41;1759106;80;20963;-67
2021/11/20 11:04:28;;;;;;;13.43;3.08;;;;;;;9.64;85.59;99392.66;1721257;81;21001;-72
2021/11/20 11:07:09;;;;;;;9.93;2.62;;;;;;;9.60;85.67;99376.30;1744940;80;21543;-72
2021/11/20 11:10:05;;;;;;;12.47;2.90;;;;;;;9.64;85.83;99370.03;1766182;80;21019;-73
2021/11/20 11:12:58;;;;;;;14.30;4.53;;;;;;;9.70;85.83;99371.96;1763286;80;21599;-72
2021/11/20 11:15:59;;;;;;;9.83;3.20;;;;;;;9.74;85.89;99357.38;1765801;80;21019;-72
2021/11/20 11:18:40;;;;;;;11.88;2.80;;;;;;;9.84;86.14;99349.95;1760101;80;21032;-72
2021/11/20 11:21:55;;;;;;;10.25;2.80;;;;;;;9.97;85.95;99335.38;1760413;80;20991;-71
2021/11/20 11:24:34;;;;;;;9.88;2.35;;;;;;;10.04;85.91;99326.31;1773945;80;21054;-72
2021/11/20 11:27:14;;;;;;;10.95;2.98;;;;;;;10.05;85.74;99328.02;1770306;80;20982;-71
2021/11/20 11:30:09;;;;;;;7.92;2.40;;;;;;;10.03;85.72;99324.63;1767396;80;20975;-72
2021/11/20 11:32:41;;;;;;;10.45;2.67;;;;;;;9.97;85.67;99318.44;1765203;79;21082;-71
2021/11/20 11:35:43;;;;;;;4.60;1.87;;;;;;;9.86;85.84;99310.31;1765946;80;20954;-70
2021/11/20 11:38:49;;;;;;;6.37;2.35;;;;;;;9.82;85.95;99310.07;1765099;80;21637;-72
2021/11/20 11:41:43;;;;;;;4.80;1.52;;;;;;;9.67;85.94;99306.48;1767295;80;20950;-74
2021/11/20 11:44:33;;;;;;;5.12;1.57;;;;;;;9.56;86.18;99302.27;1762139;80;21650;-74
2021/11/20 11:47:20;;;;;;;3.87;1.45;;;;;;;9.52;86.44;99295.06;1760491;80;21056;-74
2021/11/20 11:50:27;;;;;;;;;;;;;;;;;;;;;
2021/11/20 11:53:33;;;;;;;3.90;1.50;;;;;;;9.59;86.78;99288.61;1763119;80;20150;-75
2021/11/20 11:56:14;;;;;;;3.42;1.95;;;;;;;9.57;86.79;99284.39;1775956;80;20986;-74
2021/11/20 11:58:54;;;;;;;3.52;1.35;;;;;;;9.54;86.82;99287.98;1749688;80;20945;-73
2021/11/20 12:01:49;;;;;;;3.60;0.90;;;;;;;9.53;86.97;99281.57;1764593;80;21080;-76
2021/11/20 12:04:33;;;;;;;1.42;0.80;;;;;;;9.52;86.99;99278.56;1750720;80;21541;-74
2021/11/20 12:07:26;;;;;;;0.88;0.60;;;;;;;9.45;87.01;99272.82;1770762;80;21092;-74
2021/11/20 12:10:07;;;;;;;1.55;0.80;;;;;;;9.39;87.10;99275.73;1772498;80;21052;-75
2021/11/20 12:13:01;;;;;;;1.10;0.50;;;;;;;9.33;87.25;99265.62;1715167;81;21108;-74
2021/11/20 12:15:50;;;;;;;0.93;0.60;;;;;;;9.29;87.39;99274.49;1700816;81;21152;-71
2021/11/20 12:18:34;;;;;;;0.98;0.60;;;;;;;9.27;87.57;99266.77;1711501;81;21152;-73